Time;durP1;ratioP1;P1;durP2;ratioP2;P2;SDS_P1;SDS_P2;PMS_P1;PMS_P2;Temp;Humidity;BMP_temperature;BMP_pressure;BME280_temperature;BME280_humidity;BME280_pressure;Samples;Min_cycle;Max_cycle;Signal;HPM_P1;HPM_P2
2023/08/08 04:59:05;;;;;;;5.45;1.77;;;;;;;10.91;90.98;96707.03;2091203;28;20568;-64
2023/08/08 05:00:08;;;;;;;11.60;1.98;;;;;;;10.99;90.81;96719.75;2084963;28;20223;-65
2023/08/08 06:59:22;;;;;;;3.33;1.50;;;;;;;15.49;72.30;96713.16;2099297;27;20539;-65
2023/08/08 07:01:40;;;;;;;5.40;1.30;;;;;;;15.65;71.45;96713.03;2090884;28;21046;-65
2023/08/08 07:03:57;;;;;;;6.57;1.60;;;;;;;15.90;71.18;96712.31;2100489;27;20566;-65
2023/08/08 07:04:58;;;;;;;4.03;1.38;;;;;;;15.77;70.78;96720.16;2095200;28;20215;-65
2023/08/08 07:07:17;;;;;;;3.75;1.30;;;;;;;15.98;71.20;96712.66;2099851;27;20853;-65
2023/08/08 07:08:19;;;;;;;7.05;2.50;;;;;;;16.20;70.99;96715.69;2099620;28;20195;-65
2023/08/08 07:09:21;;;;;;;2.50;1.13;;;;;;;16.18;70.41;96714.94;2098264;28;20203;-65
2023/08/08 07:11:57;;;;;;;4.60;1.40;;;;;;;15.74;70.36;96717.69;2083386;28;20577;-65
2023/08/08 07:12:59;;;;;;;3.45;1.67;;;;;;;15.83;71.49;96718.94;2090340;28;20191;-65
2023/08/08 07:14:01;;;;;;;6.15;1.60;;;;;;;15.79;70.92;96718.25;2089918;28;20283;-65
2023/08/08 07:15:03;;;;;;;3.42;1.35;;;;;;;15.86;70.91;96716.13;2078175;28;20221;-65
2023/08/08 07:16:04;;;;;;;3.17;1.30;;;;;;;15.93;70.45;96711.28;2079261;28;20613;-65
2023/08/08 07:17:06;;;;;;;6.03;1.63;;;;;;;16.06;70.44;96717.44;2077203;28;20718;-65
2023/08/08 07:18:08;;;;;;;2.95;1.40;;;;;;;15.97;70.55;96710.13;2077108;28;20189;-65
2023/08/08 07:19:11;;;;;;;5.03;1.55;;;;;;;16.08;70.96;96705.00;2073682;28;20194;-66
2023/08/08 07:20:15;;;;;;;3.70;1.95;;;;;;;16.31;70.59;96714.00;2063025;28;20229;-66
2023/08/08 07:21:17;;;;;;;7.45;1.45;;;;;;;16.35;69.71;96706.75;2064781;28;20314;-66
2023/08/08 07:22:18;;;;;;;7.97;1.48;;;;;;;16.39;69.99;96710.03;2065341;28;20535;-65
2023/08/08 07:23:20;;;;;;;3.55;1.45;;;;;;;16.28;70.56;96702.84;2067724;28;20201;-65
2023/08/08 07:24:21;;;;;;;3.38;1.67;;;;;;;16.42;70.05;96705.41;2066820;28;20249;-65
2023/08/08 07:25:23;;;;;;;6.20;1.50;;;;;;;16.53;69.67;96709.97;2075442;28;20198;-65
2023/08/08 07:26:24;;;;;;;3.63;1.52;;;;;;;16.55;69.71;96700.13;2076080;28;20776;-66
2023/08/08 07:27:26;;;;;;;3.30;1.13;;;;;;;16.38;70.01;96706.56;2074179;28;20305;-66
2023/08/08 07:28:28;;;;;;;5.05;1.55;;;;;;;16.44;69.64;96713.19;2073934;28;20193;-66
2023/08/08 07:29:29;;;;;;;2.47;1.15;;;;;;;16.59;69.35;96713.94;2073130;28;20252;-66
2023/08/08 07:30:31;;;;;;;3.78;1.30;;;;;;;16.46;69.66;96706.88;2074541;28;20197;-66
2023/08/08 07:31:33;;;;;;;7.20;1.25;;;;;;;16.38;69.85;96703.91;2072373;28;20214;-65
2023/08/08 07:32:35;;;;;;;4.88;1.40;;;;;;;16.68;69.16;96708.03;2075479;28;20193;-66
2023/08/08 07:33:37;;;;;;;3.08;1.40;;;;;;;16.59;69.15;96708.69;2075568;28;20206;-67
2023/08/08 07:34:38;;;;;;;5.13;1.70;;;;;;;16.83;68.72;96710.59;2069037;28;20219;-68
2023/08/08 07:35:40;;;;;;;3.03;1.17;;;;;;;16.71;68.64;96705.22;2071078;28;20198;-68
2023/08/08 07:36:41;;;;;;;2.85;1.23;;;;;;;17.08;68.31;96710.59;2066129;28;20795;-67
2023/08/08 07:37:43;;;;;;;2.80;1.30;;;;;;;17.48;67.47;96704.28;2067556;28;20209;-68
2023/08/08 07:38:45;;;;;;;3.70;1.40;;;;;;;17.75;66.74;96701.47;2068382;28;20622;-67
2023/08/08 07:39:47;;;;;;;5.78;1.45;;;;;;;17.82;66.64;96711.59;2065674;28;20229;-67
2023/08/08 07:40:49;;;;;;;4.00;1.55;;;;;;;17.51;65.25;96709.38;2068327;28;20234;-67
2023/08/08 07:47:15;;;;;;;4.10;1.27;;;;;;;16.76;68.42;96703.09;2083560;28;20542;-65
2023/08/08 07:48:17;;;;;;;5.05;1.33;;;;;;;16.92;68.73;96707.34;2075377;28;20224;-66
2023/08/08 07:49:18;;;;;;;3.75;1.40;;;;;;;16.84;68.68;96701.75;2072760;28;20264;-66
2023/08/08 07:52:31;;;;;;;4.03;1.10;;;;;;;17.01;68.22;96703.22;2091905;28;21051;-66
2023/08/08 07:53:33;;;;;;;4.78;1.42;;;;;;;16.96;67.43;96707.03;2095550;28;20188;-66
2023/08/08 07:54:34;;;;;;;4.60;1.20;;;;;;;16.79;65.61;96700.25;2092186;28;20228;-66
2023/08/08 07:55:36;;;;;;;4.90;1.55;;;;;;;16.65;66.43;96703.00;2088143;28;20208;-66
2023/08/08 07:57:48;;;;;;;2.95;1.42;;;;;;;16.71;66.91;96699.94;2091031;28;20548;-66
2023/08/08 07:58:50;;;;;;;2.97;1.20;;;;;;;16.73;66.66;96699.84;2087312;28;20191;-65
2023/08/08 08:00:59;;;;;;;3.25;1.23;;;;;;;16.81;67.10;96701.00;2087013;28;20545;-65
2023/08/08 08:02:04;;;;;;;3.58;1.10;;;;;;;16.75;66.59;96705.84;2081948;28;21090;-66
2023/08/08 08:03:06;;;;;;;3.47;1.05;;;;;;;16.69;65.97;96704.47;2084612;28;20203;-66
2023/08/08 08:04:08;;;;;;;2.97;1.02;;;;;;;16.88;66.15;96705.84;2082929;28;20227;-66
2023/08/08 08:05:10;;;;;;;2.67;1.25;;;;;;;16.91;65.85;96703.00;2078921;28;20220;-65
2023/08/08 08:06:12;;;;;;;4.70;1.27;;;;;;;17.05;65.99;96708.19;2079906;28;20194;-66
2023/08/08 08:07:13;;;;;;;6.85;1.20;;;;;;;17.27;66.23;96699.59;2079747;28;20493;-66
2023/08/08 08:08:15;;;;;;;3.45;1.15;;;;;;;17.35;64.61;96701.69;2079708;28;20197;-66
2023/08/08 08:09:16;;;;;;;3.60;1.30;;;;;;;17.50;62.83;96696.28;2079605;28;20895;-65
2023/08/08 08:10:18;;;;;;;3.28;1.10;;;;;;;17.65;62.61;96695.16;2079628;28;20197;-66
2023/08/08 08:11:19;;;;;;;5.43;1.10;;;;;;;17.67;62.04;96695.06;2079669;28;20193;-66
2023/08/08 08:12:21;;;;;;;4.93;1.27;;;;;;;17.68;62.22;96691.47;2079602;28;20277;-66
2023/08/08 08:13:22;;;;;;;7.95;1.35;;;;;;;17.68;62.17;96700.22;2079459;28;20248;-66
2023/08/08 08:14:24;;;;;;;5.07;0.95;;;;;;;17.66;62.08;96691.59;2079260;28;20193;-65
2023/08/08 08:15:26;;;;;;;8.57;1.25;;;;;;;17.64;61.55;96688.19;2079407;28;20201;-66
2023/08/08 08:16:27;;;;;;;4.28;1.30;;;;;;;17.77;61.53;96690.78;2079464;28;20201;-66
2023/08/08 08:17:29;;;;;;;3.38;1.30;;;;;;;17.77;62.24;96701.34;2079696;28;20229;-68
2023/08/08 08:18:30;;;;;;;3.00;1.10;;;;;;;17.88;62.04;96698.75;2078523;28;20232;-68
2023/08/08 08:19:32;;;;;;;4.05;1.00;;;;;;;17.68;62.23;96694.09;2078592;28;20247;-68
2023/08/08 08:20:34;;;;;;;2.58;1.20;;;;;;;17.67;61.05;96692.41;2079265;28;20792;-68
2023/08/08 08:21:36;;;;;;;2.65;1.05;;;;;;;17.74;60.91;96693.66;2079761;28;20734;-68
2023/08/08 08:22:38;;;;;;;3.83;1.38;;;;;;;17.92;61.21;96694.94;2079478;28;20201;-68
2023/08/08 08:23:39;;;;;;;4.35;1.25;;;;;;;17.58;61.39;96692.09;2079100;28;20201;-68
2023/08/08 08:24:41;;;;;;;2.55;1.20;;;;;;;17.55;62.17;96689.69;2077605;28;20305;-68
2023/08/08 08:25:42;;;;;;;10.43;1.10;;;;;;;17.63;62.84;96692.63;2079620;28;20538;-68
2023/08/08 08:26:44;;;;;;;4.80;1.55;;;;;;;17.54;62.08;96688.00;2079509;28;20247;-68
2023/08/08 08:27:45;;;;;;;2.60;1.00;;;;;;;17.50;62.29;96694.47;2079429;28;20251;-68
2023/08/08 08:28:47;;;;;;;5.80;1.30;;;;;;;17.62;62.30;96696.22;2079509;28;20197;-68
2023/08/08 08:29:48;;;;;;;2.80;1.23;;;;;;;17.74;62.27;96697.13;2078499;28;20274;-68
2023/08/08 08:30:51;;;;;;;3.17;1.00;;;;;;;17.87;61.38;96683.88;2078824;28;20251;-68
2023/08/08 08:31:52;;;;;;;4.10;1.30;;;;;;;18.19;60.32;96693.03;2079278;28;20605;-68
2023/08/08 08:32:54;;;;;;;4.75;1.23;;;;;;;17.95;60.79;96693.91;2079770;28;20676;-68
2023/08/08 08:33:55;;;;;;;5.07;1.08;;;;;;;18.11;60.70;96694.44;2079644;28;20276;-68
2023/08/08 08:34:56;;;;;;;2.00;1.05;;;;;;;18.03;61.38;96693.31;2094460;28;20269;-68
2023/08/08 08:35:58;;;;;;;6.00;1.20;;;;;;;17.88;61.12;96684.72;2090250;28;20565;-68
2023/08/08 08:36:59;;;;;;;3.42;1.15;;;;;;;17.81;61.92;96686.94;2079065;28;20194;-68
2023/08/08 08:38:01;;;;;;;2.58;1.25;;;;;;;17.86;61.56;96691.91;2079734;28;20225;-68
2023/08/08 08:39:03;;;;;;;3.08;1.30;;;;;;;17.70;61.65;96685.13;2079684;28;20201;-68
2023/08/08 08:40:05;;;;;;;2.22;1.00;;;;;;;17.78;62.12;96685.38;2079040;28;20221;-68
2023/08/08 08:41:12;;;;;;;2.50;1.10;;;;;;;17.59;62.19;96682.41;2079577;28;20270;-68
2023/08/08 08:42:15;;;;;;;4.85;1.75;;;;;;;17.43;61.77;96688.81;2078722;28;20197;-68
2023/08/08 08:43:17;;;;;;;3.45;1.20;;;;;;;17.58;60.65;96684.19;2078315;28;20601;-68
2023/08/08 08:44:21;;;;;;;2.75;1.23;;;;;;;17.92;60.70;96672.97;2077963;28;20197;-68
2023/08/08 08:45:23;;;;;;;11.68;1.30;;;;;;;18.01;59.86;96682.88;2079430;28;20668;-68
2023/08/08 08:46:26;;;;;;;4.88;1.85;;;;;;;18.20;59.77;96681.53;2079212;28;20201;-68
2023/08/08 08:47:30;;;;;;;3.40;1.10;;;;;;;17.98;59.71;96679.63;2079200;28;20235;-68
2023/08/08 08:48:32;;;;;;;3.15;1.10;;;;;;;17.76;60.64;96674.09;2078453;28;20198;-68
2023/08/08 08:49:35;;;;;;;3.55;1.40;;;;;;;17.83;60.90;96681.59;2078167;28;20205;-68
2023/08/08 08:50:38;;;;;;;2.70;1.30;;;;;;;18.00;60.51;96675.91;2079330;28;20201;-68
2023/08/08 08:51:40;;;;;;;6.70;1.70;;;;;;;18.31;59.68;96678.06;2079484;28;20205;-68
2023/08/08 08:52:42;;;;;;;6.53;1.48;;;;;;;18.49;60.80;96681.97;2079435;28;20206;-68
2023/08/08 08:53:46;;;;;;;4.18;1.20;;;;;;;18.14;60.16;96680.16;2079291;28;20229;-68
2023/08/08 08:54:47;;;;;;;3.45;1.25;;;;;;;18.05;60.19;96684.34;2078964;28;20283;-68
2023/08/08 08:55:51;;;;;;;5.32;1.33;;;;;;;17.96;60.40;96682.38;2079312;28;20193;-68
2023/08/08 08:56:52;;;;;;;2.75;1.10;;;;;;;17.96;59.10;96687.66;2079237;28;20221;-68
2023/08/08 08:57:55;;;;;;;5.22;1.38;;;;;;;18.14;59.07;96677.53;2079397;28;20201;-68
2023/08/08 08:58:56;;;;;;;4.45;1.17;;;;;;;18.43;59.49;96674.47;2079208;28;20239;-68
2023/08/08 08:59:58;;;;;;;2.88;1.10;;;;;;;18.67;58.91;96681.50;2078759;28;20224;-68
2023/08/08 09:01:01;;;;;;;4.10;1.02;;;;;;;18.77;58.89;96678.03;2079205;28;20220;-68
2023/08/08 09:02:02;;;;;;;7.28;0.98;;;;;;;18.30;58.00;96687.78;2079305;28;20291;-68
2023/08/08 09:03:04;;;;;;;5.03;1.13;;;;;;;18.15;58.59;96684.50;2079488;28;20613;-68
2023/08/08 09:04:07;;;;;;;4.25;1.20;;;;;;;17.95;58.48;96684.19;2079465;28;20201;-68
2023/08/08 09:05:11;;;;;;;4.65;1.08;;;;;;;17.67;58.81;96680.03;2078775;28;20225;-68
2023/08/08 09:06:13;;;;;;;2.85;0.90;;;;;;;18.05;58.92;96686.13;2079508;28;20193;-68
2023/08/08 09:07:20;;;;;;;5.25;1.20;;;;;;;18.40;58.50;96678.22;2079161;28;20221;-68
2023/08/08 09:08:22;;;;;;;4.55;1.00;;;;;;;18.24;58.95;96678.50;2079210;28;20197;-68
2023/08/08 09:09:23;;;;;;;5.10;1.48;;;;;;;18.32;59.33;96677.97;2078957;28;20699;-68
2023/08/08 09:10:27;;;;;;;5.05;1.15;;;;;;;18.68;59.01;96678.75;2079436;28;20285;-68
2023/08/08 09:11:28;;;;;;;5.95;1.20;;;;;;;18.53;57.47;96674.63;2079322;28;20197;-68
2023/08/08 09:12:31;;;;;;;2.53;1.10;;;;;;;18.55;58.39;96677.97;2073411;28;20551;-68
2023/08/08 09:13:39;;;;;;;4.85;1.17;;;;;;;18.83;58.07;96684.66;2073907;28;20217;-67
2023/08/08 09:14:42;;;;;;;7.38;1.42;;;;;;;19.24;57.26;96679.75;2073112;28;20225;-67
2023/08/08 09:15:48;;;;;;;4.85;1.10;;;;;;;19.17;56.67;96674.13;2073595;28;20198;-68
2023/08/08 09:16:51;;;;;;;6.30;1.20;;;;;;;19.05;56.82;96680.38;2073716;28;20198;-68
2023/08/08 09:17:53;;;;;;;2.95;1.23;;;;;;;19.09;57.58;96679.97;2073913;28;20206;-68
2023/08/08 09:18:55;;;;;;;7.20;1.40;;;;;;;18.93;57.36;96680.38;2073960;28;20205;-68
2023/08/08 09:19:58;;;;;;;2.78;0.90;;;;;;;19.08;57.88;96677.47;2073312;28;20213;-68
2023/08/08 09:21:00;;;;;;;4.05;1.27;;;;;;;18.82;57.56;96677.69;2073190;28;20194;-68
2023/08/08 09:22:01;;;;;;;5.30;1.10;;;;;;;18.47;57.09;96669.81;2071563;28;20202;-68
2023/08/08 09:23:03;;;;;;;3.63;1.40;;;;;;;18.55;57.67;96667.41;2073912;28;20492;-68
2023/08/08 09:24:05;;;;;;;3.45;1.40;;;;;;;18.92;57.31;96672.56;2073555;28;20292;-68
2023/08/08 09:25:07;;;;;;;2.90;0.90;;;;;;;18.95;57.13;96672.31;2073274;28;20627;-68
2023/08/08 09:26:10;;;;;;;4.07;1.80;;;;;;;19.30;56.50;96676.63;2073329;28;20641;-68
2023/08/08 09:27:11;;;;;;;5.03;1.52;;;;;;;19.17;56.44;96666.19;2073231;28;20524;-68
2023/08/08 09:28:13;;;;;;;7.07;1.38;;;;;;;19.45;56.27;96663.94;2073264;28;20204;-68
2023/08/08 09:29:15;;;;;;;4.30;1.40;;;;;;;19.52;55.19;96664.31;2073220;28;20248;-68
2023/08/08 09:30:17;;;;;;;7.25;1.90;;;;;;;19.47;55.81;96669.13;2071610;28;20229;-67
2023/08/08 09:31:18;;;;;;;4.20;1.10;;;;;;;19.66;55.37;96669.31;2072971;28;20190;-67
2023/08/08 09:32:20;;;;;;;3.50;1.17;;;;;;;19.51;55.26;96659.97;2072985;28;20198;-67
2023/08/08 09:33:21;;;;;;;3.95;1.30;;;;;;;19.17;55.42;96673.25;2072971;28;20205;-67
2023/08/08 09:34:26;;;;;;;3.30;1.58;;;;;;;18.77;56.42;96666.63;2072178;28;20286;-67
2023/08/08 09:35:30;;;;;;;6.70;1.42;;;;;;;19.12;56.38;96673.59;2073045;28;20198;-67
2023/08/08 09:36:33;;;;;;;7.18;1.48;;;;;;;19.30;56.11;96671.31;2072972;28;20251;-67
2023/08/08 09:37:35;;;;;;;4.47;1.52;;;;;;;19.61;54.96;96671.50;2072946;28;20230;-67
2023/08/08 09:38:36;;;;;;;4.55;1.17;;;;;;;20.04;54.36;96667.19;2072929;28;20289;-67
2023/08/08 09:39:38;;;;;;;3.08;1.30;;;;;;;20.21;54.60;96668.41;2071859;28;20228;-67
2023/08/08 09:40:40;;;;;;;4.13;1.65;;;;;;;20.22;54.54;96662.97;2072630;28;20202;-67
2023/08/08 09:41:42;;;;;;;3.22;1.30;;;;;;;20.19;53.61;96668.56;2072088;28;20217;-68
2023/08/08 09:42:43;;;;;;;2.45;1.10;;;;;;;19.73;53.81;96656.41;2072656;28;20622;-67
2023/08/08 09:43:45;;;;;;;4.97;1.58;;;;;;;19.89;53.81;96659.50;2072600;28;20201;-67
2023/08/08 09:44:47;;;;;;;3.63;1.50;;;;;;;19.87;53.79;96658.81;2071908;28;20692;-67
2023/08/08 09:45:48;;;;;;;2.85;1.15;;;;;;;19.51;53.30;96657.31;2072635;28;20641;-67
2023/08/08 09:46:50;;;;;;;7.03;1.58;;;;;;;19.56;53.73;96668.38;2071571;28;20601;-67
2023/08/08 09:47:52;;;;;;;2.95;1.13;;;;;;;19.81;54.19;96661.94;2072902;28;20206;-67
2023/08/08 09:48:54;;;;;;;3.70;1.05;;;;;;;19.90;54.41;96647.13;2071899;28;20204;-68
2023/08/08 09:50:00;;;;;;;6.15;1.73;;;;;;;20.45;53.12;96664.69;2072379;28;20634;-68
2023/08/08 09:51:04;;;;;;;3.53;1.40;;;;;;;20.31;53.41;96658.72;2072494;28;20655;-68
2023/08/08 09:52:06;;;;;;;3.40;1.40;;;;;;;20.25;53.47;96661.06;2072593;28;20197;-70
2023/08/08 09:53:08;;;;;;;3.03;1.17;;;;;;;20.08;54.46;96662.47;2072816;28;20197;-72
2023/08/08 09:54:10;;;;;;;2.75;1.40;;;;;;;20.12;54.66;96656.78;2072137;28;20197;-67
2023/08/08 09:55:13;;;;;;;3.85;1.08;;;;;;;19.94;54.49;96659.16;2071254;28;20217;-66
2023/08/08 09:56:16;;;;;;;3.28;1.20;;;;;;;19.83;53.25;96667.13;2072883;28;20205;-66
2023/08/08 09:57:18;;;;;;;3.50;1.15;;;;;;;19.69;53.87;96649.69;2072096;28;20537;-67
2023/08/08 09:58:20;;;;;;;4.72;1.17;;;;;;;19.84;54.23;96647.63;2072386;28;20209;-66
2023/08/08 09:59:21;;;;;;;3.38;1.20;;;;;;;19.97;54.56;96655.41;2072302;28;20194;-67
2023/08/08 10:00:25;;;;;;;1.90;1.00;;;;;;;19.93;54.28;96665.41;2072619;28;20313;-68
2023/08/08 10:01:27;;;;;;;4.63;1.58;;;;;;;19.71;54.62;96653.88;2072593;28;20215;-66
2023/08/08 10:02:29;;;;;;;5.63;1.23;;;;;;;19.63;54.17;96664.28;2072565;28;20198;-67
2023/08/08 10:03:32;;;;;;;7.20;1.02;;;;;;;20.17;53.50;96661.69;2071590;28;20260;-66
2023/08/08 10:04:34;;;;;;;2.95;1.30;;;;;;;20.51;52.05;96654.41;2070762;28;20289;-67
2023/08/08 10:05:37;;;;;;;3.63;1.25;;;;;;;20.68;52.79;96652.97;2071471;28;20240;-66
2023/08/08 10:06:38;;;;;;;4.20;1.30;;;;;;;20.90;52.07;96647.63;2072323;28;20213;-66
2023/08/08 10:07:41;;;;;;;2.60;1.05;;;;;;;20.83;51.20;96650.00;2073733;28;20583;-66
2023/08/08 10:08:43;;;;;;;9.48;1.38;;;;;;;20.49;52.56;96663.44;2072427;28;20194;-66
2023/08/08 10:09:44;;;;;;;3.60;1.25;;;;;;;20.64;52.56;96651.53;2071356;28;20225;-66
2023/08/08 10:10:49;;;;;;;3.30;1.10;;;;;;;20.35;52.24;96652.22;2072587;28;20560;-66
2023/08/08 10:11:51;;;;;;;4.25;1.50;;;;;;;20.23;53.13;96654.06;2072399;28;20201;-66
2023/08/08 10:12:53;;;;;;;5.85;1.20;;;;;;;20.70;52.26;96648.38;2072284;28;20296;-66
2023/08/08 10:13:54;;;;;;;8.15;1.42;;;;;;;21.01;52.52;96647.56;2072538;28;20649;-66
2023/08/08 10:14:56;;;;;;;2.95;1.10;;;;;;;21.00;51.91;96643.22;2071928;28;20229;-66
2023/08/08 10:16:03;;;;;;;1.92;0.93;;;;;;;20.89;51.73;96646.81;2070682;28;20813;-65
2023/08/08 10:17:06;;;;;;;2.88;0.90;;;;;;;21.12;51.59;96642.16;2072691;28;20216;-65
2023/08/08 10:18:07;;;;;;;3.55;1.05;;;;;;;20.97;51.40;96646.16;2071905;28;20236;-65
2023/08/08 10:19:09;;;;;;;4.18;1.27;;;;;;;21.13;50.33;96643.84;2072540;28;20194;-65
2023/08/08 10:20:11;;;;;;;3.28;1.15;;;;;;;20.91;49.44;96658.13;2071775;28;20224;-65
2023/08/08 10:21:14;;;;;;;2.80;1.40;;;;;;;20.54;49.85;96656.81;2072666;28;20626;-65
2023/08/08 10:22:22;;;;;;;4.40;1.15;;;;;;;20.41;49.93;96650.00;2072375;28;20214;-65
2023/08/08 10:23:23;;;;;;;2.33;1.63;;;;;;;20.77;50.67;96656.66;2071712;28;20867;-65
2023/08/08 10:24:25;;;;;;;3.30;1.00;;;;;;;20.87;51.51;96662.88;2071402;28;20708;-65
2023/08/08 10:25:28;;;;;;;3.58;1.45;;;;;;;20.37;49.65;96646.78;2072486;28;20217;-65
2023/08/08 10:26:30;;;;;;;1.92;0.90;;;;;;;20.12;51.28;96650.66;2072484;28;20657;-65
2023/08/08 10:27:36;;;;;;;5.55;1.02;;;;;;;19.75;52.16;96642.06;2087776;28;20230;-65
2023/08/08 10:28:38;;;;;;;3.72;1.20;;;;;;;19.79;52.34;96647.97;2086496;28;20218;-65
2023/08/08 10:29:39;;;;;;;3.42;1.30;;;;;;;19.66;53.12;96660.53;2071759;28;20225;-64
2023/08/08 10:30:55;;;;;;;6.28;1.25;;;;;;;19.94;51.44;96653.03;2071065;28;20344;-63
2023/08/08 10:32:03;;;;;;;2.75;1.10;;;;;;;20.39;50.43;96652.78;2071891;28;20268;-63
2023/08/08 10:33:04;;;;;;;3.97;1.10;;;;;;;20.06;50.62;96651.97;2071948;28;20197;-64
2023/08/08 10:34:07;;;;;;;4.13;1.17;;;;;;;20.20;51.35;96661.44;2072557;28;20255;-64
2023/08/08 10:35:11;;;;;;;4.55;1.85;;;;;;;20.70;49.61;96656.34;2070919;28;20851;-64
2023/08/08 10:36:13;;;;;;;3.42;1.23;;;;;;;21.10;49.48;96653.88;2070736;28;20200;-63
2023/08/08 10:37:17;;;;;;;3.08;1.00;;;;;;;21.01;48.83;96653.72;2071936;28;20874;-64
2023/08/08 10:38:21;;;;;;;2.00;1.00;;;;;;;21.28;48.53;96652.28;2071922;28;20264;-64
2023/08/08 10:39:24;;;;;;;2.40;1.17;;;;;;;21.35;48.57;96649.91;2072171;28;20209;-64
2023/08/08 10:40:32;;;;;;;9.45;1.20;;;;;;;21.47;48.67;96650.63;2071672;28;20564;-65
2023/08/08 10:41:44;;;;;;;6.13;1.30;;;;;;;21.33;47.89;96649.19;2072099;28;20201;-65
2023/08/08 10:42:46;;;;;;;3.80;1.20;;;;;;;21.93;47.97;96653.66;2072379;28;20198;-65
2023/08/08 10:43:57;;;;;;;3.30;1.15;;;;;;;20.76;49.00;96654.13;2072411;28;20276;-64
2023/08/08 10:45:01;;;;;;;2.80;1.30;;;;;;;20.50;48.92;96651.88;2071863;28;20218;-65
2023/08/08 10:46:03;;;;;;;3.08;1.10;;;;;;;20.65;49.78;96655.88;2072101;28;20697;-64
2023/08/08 10:47:14;;;;;;;2.75;0.93;;;;;;;20.63;49.46;96649.00;2072135;28;20201;-65
2023/08/08 10:48:18;;;;;;;3.10;1.23;;;;;;;20.58;49.56;96656.53;2072248;28;20197;-64
2023/08/08 10:49:19;;;;;;;2.67;1.33;;;;;;;21.19;49.44;96645.94;2071808;28;20205;-64
2023/08/08 10:50:24;;;;;;;3.38;1.23;;;;;;;20.90;48.95;96661.78;2071643;28;20285;-64
2023/08/08 10:51:39;;;;;;;3.53;1.50;;;;;;;20.80;50.17;96650.28;2072417;28;20251;-63
2023/08/08 10:52:54;;;;;;;5.78;1.20;;;;;;;20.64;50.04;96643.56;2072283;28;20194;-63
2023/08/08 10:53:57;;;;;;;2.63;0.98;;;;;;;20.98;50.19;96643.34;2071902;28;20276;-64
2023/08/08 10:54:59;;;;;;;4.30;1.65;;;;;;;21.06;50.28;96637.38;2071989;28;20749;-64
2023/08/08 10:56:04;;;;;;;4.47;1.20;;;;;;;20.79;49.28;96654.72;2072039;28;20907;-65
2023/08/08 10:57:16;;;;;;;3.35;1.50;;;;;;;20.48;49.91;96644.06;2071855;28;20198;-64
2023/08/08 10:58:19;;;;;;;3.83;1.30;;;;;;;20.21;49.51;96647.22;2072124;28;20816;-64
2023/08/08 10:59:27;;;;;;;2.30;1.05;;;;;;;20.32;50.77;96641.03;2071673;28;20208;-64
2023/08/08 11:00:31;;;;;;;2.05;1.00;;;;;;;20.73;49.14;96652.59;2071839;28;20240;-64
2023/08/08 11:01:33;;;;;;;3.03;1.20;;;;;;;21.39;49.63;96646.00;2071364;28;20228;-64
2023/08/08 11:02:34;;;;;;;2.03;1.10;;;;;;;21.96;47.51;96637.44;2071599;28;20582;-64
2023/08/08 11:03:40;;;;;;;2.40;1.35;;;;;;;21.94;47.78;96645.56;2072292;28;20189;-64
2023/08/08 11:04:41;;;;;;;6.05;1.20;;;;;;;21.93;46.93;96643.88;2071433;28;20695;-64
2023/08/08 11:05:47;;;;;;;1.85;1.00;;;;;;;22.11;46.80;96648.50;2079305;28;20208;-64
2023/08/08 11:06:49;;;;;;;3.67;1.13;;;;;;;22.19;46.50;96648.59;2078446;28;20248;-64
2023/08/08 11:07:51;;;;;;;2.40;1.10;;;;;;;21.62;47.71;96643.13;2072328;28;20679;-64
2023/08/08 11:08:54;;;;;;;3.28;1.30;;;;;;;22.05;47.95;96647.22;2072281;28;20285;-64
2023/08/08 11:09:55;;;;;;;2.63;0.90;;;;;;;22.39;48.22;96633.50;2071492;28;20217;-65
2023/08/08 11:10:57;;;;;;;7.40;1.42;;;;;;;21.97;48.31;96645.25;2071677;28;20201;-64
2023/08/08 11:11:59;;;;;;;6.97;1.40;;;;;;;22.12;48.66;96637.72;2071955;28;20919;-64
2023/08/08 11:13:03;;;;;;;2.90;1.20;;;;;;;22.18;47.57;96644.25;2071326;28;20201;-65
2023/08/08 11:14:15;;;;;;;4.85;1.15;;;;;;;22.38;47.35;96650.44;2071919;28;20201;-65
2023/08/08 11:15:17;;;;;;;2.95;1.10;;;;;;;21.99;47.12;96645.13;2071206;28;20225;-65
2023/08/08 11:16:19;;;;;;;3.70;1.17;;;;;;;21.60;47.08;96637.97;2072127;28;20251;-64
2023/08/08 11:17:21;;;;;;;3.05;1.02;;;;;;;21.79;47.74;96634.50;2072252;28;20840;-65
2023/08/08 11:18:22;;;;;;;4.22;1.50;;;;;;;21.26;49.11;96640.09;2072247;28;20634;-64
2023/08/08 11:19:24;;;;;;;3.15;1.20;;;;;;;20.70;49.81;96644.88;2071615;28;20198;-65
2023/08/08 11:20:29;;;;;;;8.65;1.33;;;;;;;20.51;51.17;96642.97;2072260;28;20194;-65
2023/08/08 11:21:35;;;;;;;4.35;1.40;;;;;;;20.65;50.59;96644.44;2072044;28;20293;-65
2023/08/08 11:22:36;;;;;;;2.17;0.95;;;;;;;21.21;48.84;96649.28;2071620;28;20297;-66
2023/08/08 11:23:38;;;;;;;5.43;1.10;;;;;;;21.26;48.30;96640.94;2071952;28;20197;-65
2023/08/08 11:24:40;;;;;;;2.88;1.35;;;;;;;21.32;48.23;96644.88;2071411;28;20259;-65
2023/08/08 11:25:43;;;;;;;2.45;1.15;;;;;;;21.18;49.25;96651.41;2072018;28;20224;-64
2023/08/08 11:26:47;;;;;;;5.18;1.02;;;;;;;21.69;48.17;96642.44;2072016;28;20208;-64
2023/08/08 11:27:51;;;;;;;6.97;1.55;;;;;;;21.83;47.85;96646.50;2072117;28;20240;-64
2023/08/08 11:28:52;;;;;;;2.40;1.13;;;;;;;21.77;48.49;96641.75;2072136;28;20197;-64
2023/08/08 11:29:56;;;;;;;5.60;1.50;;;;;;;21.95;48.04;96633.09;2071686;28;20347;-64
2023/08/08 11:30:59;;;;;;;3.20;1.20;;;;;;;22.02;47.97;96642.19;2071872;28;20209;-64
2023/08/08 11:32:02;;;;;;;6.30;1.20;;;;;;;22.54;47.96;96638.38;2072028;28;20228;-64
2023/08/08 11:33:05;;;;;;;2.80;1.10;;;;;;;22.54;46.02;96641.88;2070523;28;20209;-64
2023/08/08 11:34:11;;;;;;;2.95;1.30;;;;;;;22.27;45.46;96629.28;2071825;28;20211;-64
2023/08/08 11:35:18;;;;;;;2.95;1.30;;;;;;;22.64;45.65;96639.22;2069285;28;20693;-64
2023/08/08 11:36:19;;;;;;;3.35;1.20;;;;;;;23.05;45.32;96637.09;2071980;28;20201;-64
2023/08/08 11:37:22;;;;;;;5.25;1.55;;;;;;;23.04;43.18;96642.56;2071307;28;20220;-64
2023/08/08 11:38:23;;;;;;;1.92;1.05;;;;;;;22.58;44.24;96645.94;2071389;28;20202;-64
2023/08/08 11:39:26;;;;;;;3.20;1.25;;;;;;;23.24;43.55;96638.84;2071375;28;20197;-64
2023/08/08 11:40:29;;;;;;;2.72;1.25;;;;;;;23.43;43.67;96643.22;2071867;28;20193;-65
2023/08/08 11:41:31;;;;;;;8.57;1.23;;;;;;;23.22;45.40;96640.81;2070251;28;20208;-64
2023/08/08 11:42:33;;;;;;;2.97;1.10;;;;;;;22.79;46.10;96629.78;2071784;28;20210;-64
2023/08/08 11:43:34;;;;;;;2.70;1.30;;;;;;;22.77;45.65;96637.06;2071814;28;20289;-64
2023/08/08 11:44:37;;;;;;;2.28;1.08;;;;;;;22.44;45.39;96646.38;2071000;28;20197;-64
2023/08/08 11:45:38;;;;;;;6.90;0.93;;;;;;;22.40;44.12;96635.19;2072051;28;20202;-64
2023/08/08 11:46:46;;;;;;;4.47;0.90;;;;;;;22.59;45.21;96636.97;2072033;28;20242;-64
2023/08/08 11:47:55;;;;;;;2.35;1.23;;;;;;;22.72;44.30;96636.66;2072066;28;20281;-64
2023/08/08 11:49:06;;;;;;;2.92;1.45;;;;;;;23.04;45.10;96621.25;2071159;28;20588;-64
2023/08/08 11:50:10;;;;;;;3.08;1.13;;;;;;;23.09;44.75;96627.81;2070681;28;20308;-64
2023/08/08 11:51:15;;;;;;;2.53;0.90;;;;;;;22.49;44.30;96631.66;2071842;28;20263;-64
2023/08/08 11:52:18;;;;;;;3.80;1.15;;;;;;;22.12;45.15;96634.22;2071898;28;20233;-64
2023/08/08 11:53:19;;;;;;;2.35;1.00;;;;;;;21.78;45.50;96626.66;2072091;28;20201;-64
2023/08/08 11:54:21;;;;;;;4.10;1.20;;;;;;;21.28;45.79;96623.06;2070761;28;20260;-64
2023/08/08 11:55:29;;;;;;;3.78;1.20;;;;;;;21.58;46.30;96618.66;2071240;28;20665;-63
2023/08/08 11:56:35;;;;;;;2.97;0.98;;;;;;;22.00;47.45;96626.38;2070692;28;20432;-63
2023/08/08 11:57:38;;;;;;;2.17;0.85;;;;;;;21.48;46.36;96631.06;2071253;28;20197;-63
2023/08/08 11:58:40;;;;;;;4.45;1.50;;;;;;;21.82;46.79;96628.88;2071754;28;20541;-63
2023/08/08 11:59:41;;;;;;;3.47;1.20;;;;;;;21.65;46.50;96626.94;2071699;28;20691;-64
2023/08/08 12:00:45;;;;;;;4.18;1.33;;;;;;;21.05;46.97;96622.41;2071757;28;20712;-63
2023/08/08 12:01:49;;;;;;;2.40;1.20;;;;;;;20.80;47.24;96623.75;2071901;28;20896;-63
2023/08/08 12:02:52;;;;;;;3.80;1.00;;;;;;;20.50;48.39;96623.53;2071869;28;20210;-63
2023/08/08 12:03:54;;;;;;;3.70;1.00;;;;;;;20.59;48.14;96613.94;2070109;28;20217;-63
2023/08/08 12:05:04;;;;;;;6.07;1.60;;;;;;;21.39;48.50;96622.09;2071070;28;20320;-63
2023/08/08 12:06:16;;;;;;;1.77;0.95;;;;;;;21.65;45.74;96618.97;2071785;28;20327;-64
2023/08/08 12:07:18;;;;;;;2.72;1.10;;;;;;;21.49;45.84;96625.59;2070778;28;20209;-63
2023/08/08 12:08:20;;;;;;;3.40;1.38;;;;;;;21.28;47.01;96616.88;2071936;28;20309;-63